createdAt,value
2023-11-23T00:00:57.626Z,89.38
2023-11-23T00:02:00.894Z,88.94
2023-11-23T00:03:03.083Z,89.33
2023-11-23T00:04:06.540Z,89.27
2023-11-23T00:05:10.130Z,89.27
2023-11-23T00:06:13.357Z,88.99
2023-11-23T00:07:16.918Z,89.36
2023-11-23T00:08:20.960Z,89.37
2023-11-23T00:09:23.086Z,89.41
2023-11-23T00:10:26.202Z,89.68
2023-11-23T00:11:29.205Z,89.45
2023-11-23T00:12:31.431Z,89.56
2023-11-23T00:13:34.570Z,89.62
2023-11-23T00:14:37.273Z,89.61
2023-11-23T00:15:40.343Z,89.89
2023-11-23T00:16:44.707Z,89.63
2023-11-23T00:17:47.008Z,89.70
2023-11-23T00:18:50.231Z,89.66
2023-11-23T00:19:52.406Z,89.74
2023-11-23T00:20:56.465Z,89.74
2023-11-23T00:21:58.707Z,89.89
2023-11-23T00:23:03.135Z,89.89
2023-11-23T00:24:06.503Z,89.70
2023-11-23T00:25:13.422Z,90.06
2023-11-23T00:26:15.683Z,90.08
2023-11-23T00:27:29.720Z,90.02
2023-11-23T00:28:32.104Z,90.08
2023-11-23T00:29:35.414Z,90.07
2023-11-23T00:30:37.520Z,89.92
2023-11-23T00:31:40.682Z,90.17
2023-11-23T00:32:42.924Z,89.98
2023-11-23T00:33:45.374Z,90.11
2023-11-23T00:34:48.801Z,90.05
2023-11-23T00:35:51.176Z,90.04
2023-11-23T00:36:54.372Z,90.18
2023-11-23T00:37:56.594Z,90.35
2023-11-23T00:39:01.008Z,90.37
2023-11-23T00:40:04.177Z,89.83
2023-11-23T00:41:09.060Z,90.29
2023-11-23T00:42:11.273Z,90.27
2023-11-23T00:43:13.606Z,90.36
2023-11-23T00:44:16.897Z,90.30
2023-11-23T00:45:19.145Z,90.51
2023-11-23T00:46:22.278Z,90.42
2023-11-23T00:47:24.425Z,90.34
2023-11-23T00:48:28.464Z,90.38
2023-11-23T00:49:31.124Z,90.38
2023-11-23T00:50:34.314Z,90.75
2023-11-23T00:51:37.902Z,90.27
2023-11-23T00:52:41.062Z,90.47
2023-11-23T00:53:43.185Z,90.48
2023-11-23T00:54:48.600Z,90.29
2023-11-23T00:55:50.880Z,90.52
2023-11-23T00:56:54.022Z,90.45
2023-11-23T00:57:56.152Z,90.56
2023-11-23T00:58:59.336Z,90.37
2023-11-23T01:00:01.591Z,90.54
2023-11-23T01:01:05.343Z,90.54
2023-11-23T01:02:07.626Z,90.58
2023-11-23T01:03:11.073Z,90.57
2023-11-23T01:04:14.629Z,90.92
2023-11-23T01:05:20.050Z,90.54
2023-11-23T01:06:22.220Z,90.71
2023-11-23T01:07:25.284Z,90.70
2023-11-23T01:08:27.349Z,90.67
2023-11-23T01:09:30.454Z,90.69
2023-11-23T01:10:33.957Z,90.70
2023-11-23T01:11:37.164Z,90.75
2023-11-23T01:12:39.337Z,90.99
2023-11-23T01:13:42.937Z,90.93
2023-11-23T01:14:46.140Z,90.94
2023-11-23T01:15:48.347Z,90.86
2023-11-23T01:16:51.554Z,90.88
2023-11-23T01:17:53.882Z,90.90
2023-11-23T01:18:57.091Z,90.92
2023-11-23T01:19:59.272Z,90.84
2023-11-23T01:21:02.532Z,90.78
2023-11-23T01:22:04.995Z,90.84
2023-11-23T01:23:08.119Z,90.86
2023-11-23T01:24:13.078Z,90.82
2023-11-23T01:25:16.462Z,90.98
2023-11-23T01:26:19.950Z,90.70
2023-11-23T01:27:23.130Z,90.94
2023-11-23T01:28:25.175Z,91.06
2023-11-23T01:29:28.321Z,90.82
2023-11-23T01:30:30.661Z,91.00
2023-11-23T01:31:33.933Z,91.11
2023-11-23T01:32:36.198Z,91.03
2023-11-23T01:33:39.554Z,91.02
2023-11-23T01:34:41.675Z,91.11
2023-11-23T01:35:43.893Z,91.03
2023-11-23T01:36:47.019Z,90.97
2023-11-23T01:37:49.134Z,91.15
2023-11-23T01:38:52.224Z,91.33
2023-11-23T01:39:54.475Z,91.29
2023-11-23T01:40:57.641Z,91.26
2023-11-23T01:42:01.113Z,91.19
2023-11-23T01:43:04.579Z,91.28
2023-11-23T01:44:06.793Z,91.26
2023-11-23T01:45:10.806Z,91.38
2023-11-23T01:46:12.960Z,91.36
2023-11-23T01:47:16.369Z,91.31
2023-11-23T01:48:19.292Z,91.38
2023-11-23T01:49:23.801Z,91.39
2023-11-23T01:50:26.653Z,91.50
2023-11-23T01:51:30.008Z,91.41
2023-11-23T01:52:32.213Z,91.25
2023-11-23T01:53:35.397Z,91.50
2023-11-23T01:54:37.635Z,91.36
2023-11-23T01:55:40.775Z,91.52
2023-11-23T01:56:43.638Z,91.46
2023-11-23T01:57:49.135Z,91.53
2023-11-23T01:58:51.438Z,91.60
2023-11-23T01:59:54.790Z,91.59
2023-11-23T02:00:56.993Z,91.48
2023-11-23T02:02:00.457Z,91.43
2023-11-23T02:03:02.770Z,91.40
2023-11-23T02:04:07.106Z,91.41
2023-11-23T02:05:10.819Z,91.49
2023-11-23T02:06:13.996Z,91.58
2023-11-23T02:07:16.314Z,91.33
2023-11-23T02:08:19.435Z,91.48
2023-11-23T02:09:21.900Z,91.47
2023-11-23T02:10:24.151Z,91.51
2023-11-23T02:11:29.092Z,91.40
2023-11-23T02:12:34.540Z,91.37
2023-11-23T02:13:39.771Z,91.36
2023-11-23T02:14:43.171Z,91.22
2023-11-23T02:15:46.676Z,91.47
2023-11-23T02:16:49.446Z,91.37
2023-11-23T02:18:02.605Z,91.15
2023-11-23T02:19:05.280Z,91.33
2023-11-23T02:20:10.469Z,91.20
2023-11-23T02:21:13.724Z,91.42
2023-11-23T02:22:16.492Z,91.62
2023-11-23T02:23:19.595Z,91.85
2023-11-23T02:24:23.690Z,91.80
2023-11-23T02:25:26.809Z,92.07
2023-11-23T02:26:28.859Z,91.80
2023-11-23T02:27:33.555Z,91.81
2023-11-23T02:28:35.696Z,91.84
2023-11-23T02:29:39.532Z,91.72
2023-11-23T02:30:42.214Z,91.87
2023-11-23T02:31:45.550Z,91.86
2023-11-23T02:32:47.736Z,91.75
2023-11-23T02:33:51.577Z,91.86
2023-11-23T02:34:54.929Z,91.90
2023-11-23T02:35:57.048Z,91.77
2023-11-23T02:37:00.251Z,92.00
2023-11-23T02:38:02.431Z,92.06
2023-11-23T02:39:05.868Z,91.93
2023-11-23T02:40:12.113Z,92.08
2023-11-23T02:41:15.112Z,92.17
2023-11-23T02:42:18.354Z,92.07
2023-11-23T02:43:20.595Z,91.64
2023-11-23T02:44:23.794Z,92.32
2023-11-23T02:45:25.906Z,91.86
2023-11-23T02:48:06.757Z,92.16
2023-11-23T02:49:10.456Z,91.95
2023-11-23T02:50:12.845Z,92.22
2023-11-23T02:51:16.578Z,92.15
2023-11-23T02:52:18.728Z,92.12
2023-11-23T02:53:31.453Z,92.33
2023-11-23T02:54:33.820Z,91.96
2023-11-23T02:55:37.676Z,92.38
2023-11-23T02:56:39.872Z,92.28
2023-11-23T02:57:44.240Z,92.33
2023-11-23T02:58:47.936Z,92.43
2023-11-23T02:59:52.576Z,92.56
2023-11-23T03:00:54.929Z,92.48
2023-11-23T03:01:57.794Z,92.67
2023-11-23T03:03:01.211Z,92.49
2023-11-23T03:04:05.879Z,92.48
2023-11-23T03:05:11.664Z,92.69
2023-11-23T03:06:15.445Z,92.65
2023-11-23T03:07:18.934Z,92.62
2023-11-23T03:08:21.566Z,92.61
2023-11-23T03:09:24.767Z,92.86
2023-11-23T03:10:26.856Z,92.64
2023-11-23T03:11:30.096Z,92.46
2023-11-23T03:12:32.268Z,92.45
2023-11-23T03:13:35.344Z,92.67
2023-11-23T03:14:37.473Z,93.11
2023-11-23T03:15:40.929Z,93.09
2023-11-23T03:16:43.636Z,92.93
2023-11-23T03:17:46.873Z,93.08
2023-11-23T03:18:49.310Z,92.92
2023-11-23T03:19:52.991Z,92.82
2023-11-23T03:20:56.289Z,92.91
2023-11-23T03:21:58.958Z,93.05
2023-11-23T03:23:02.027Z,92.99
2023-11-23T03:24:05.662Z,92.94
2023-11-23T03:25:10.307Z,93.00
2023-11-23T03:26:12.409Z,93.12
2023-11-23T03:27:15.902Z,93.27
2023-11-23T03:28:20.243Z,93.21
2023-11-23T03:29:23.643Z,93.40
2023-11-23T03:30:26.877Z,93.30
2023-11-23T03:31:29.993Z,93.29
2023-11-23T03:32:33.534Z,93.23
2023-11-23T03:33:36.691Z,93.23
2023-11-23T03:34:38.820Z,93.15
2023-11-23T03:35:42.508Z,93.26
2023-11-23T03:36:45.657Z,93.14
2023-11-23T03:37:47.730Z,93.15
2023-11-23T03:38:50.828Z,92.99
2023-11-23T03:39:53.701Z,93.17
2023-11-23T03:40:58.584Z,93.12
2023-11-23T03:42:02.343Z,93.03
2023-11-23T03:43:05.627Z,93.19
2023-11-23T03:44:07.749Z,93.10
2023-11-23T03:45:11.534Z,92.97
2023-11-23T03:46:13.825Z,93.17
2023-11-23T03:47:17.005Z,93.10
2023-11-23T03:48:19.496Z,93.14
2023-11-23T03:49:22.605Z,93.19
2023-11-23T03:50:25.602Z,93.01
2023-11-23T03:51:29.983Z,93.04
2023-11-23T03:52:32.116Z,92.99
2023-11-23T03:53:35.185Z,93.07
2023-11-23T03:54:37.222Z,92.92
2023-11-23T03:55:40.259Z,93.08
2023-11-23T03:56:42.403Z,93.17
2023-11-23T03:57:46.948Z,92.97
2023-11-23T03:58:49.188Z,93.21
2023-11-23T03:59:52.313Z,93.29
2023-11-23T04:00:54.365Z,93.27
2023-11-23T04:01:57.565Z,93.26
2023-11-23T04:03:00.117Z,93.08
2023-11-23T04:04:04.227Z,93.02
2023-11-23T04:05:08.147Z,93.14
2023-11-23T04:06:11.288Z,93.21
2023-11-23T04:07:14.692Z,93.38
2023-11-23T04:08:17.736Z,93.44
2023-11-23T04:09:20.074Z,93.66
2023-11-23T04:10:23.211Z,93.19
2023-11-23T04:11:25.617Z,93.42
2023-11-23T04:12:29.791Z,93.29
2023-11-23T04:13:31.886Z,93.45
2023-11-23T04:14:35.301Z,93.52
2023-11-23T04:15:37.303Z,93.59
2023-11-23T04:16:39.495Z,93.82
2023-11-23T04:17:42.678Z,93.35
2023-11-23T04:18:45.960Z,93.66
2023-11-23T04:19:49.577Z,93.68
2023-11-23T04:20:51.642Z,93.73
2023-11-23T04:21:54.770Z,93.71
2023-11-23T04:22:58.165Z,93.70
2023-11-23T04:24:01.738Z,93.78
2023-11-23T04:25:05.081Z,93.88
2023-11-23T04:26:08.277Z,94.14
2023-11-23T04:27:10.499Z,94.35
2023-11-23T04:28:13.940Z,94.10
2023-11-23T04:29:15.984Z,94.33
2023-11-23T04:30:19.396Z,94.29
2023-11-23T04:31:21.774Z,94.13
2023-11-23T04:32:24.865Z,94.03
2023-11-23T04:33:27.376Z,94.03
2023-11-23T04:34:29.516Z,94.04
2023-11-23T04:35:32.555Z,94.22
2023-11-23T04:36:37.946Z,94.11
2023-11-23T04:37:40.405Z,94.29
2023-11-23T04:38:44.862Z,94.06
2023-11-23T04:39:46.902Z,94.00
2023-11-23T04:40:49.953Z,94.20
2023-11-23T04:41:52.063Z,94.31
2023-11-23T04:42:54.181Z,94.28
2023-11-23T04:43:57.294Z,94.12
2023-11-23T04:44:59.351Z,94.09
2023-11-23T04:46:02.481Z,93.96
2023-11-23T04:47:05.162Z,94.32
2023-11-23T04:48:08.011Z,94.04
2023-11-23T04:49:11.284Z,94.12
2023-11-23T04:50:14.570Z,94.17
2023-11-23T04:51:17.688Z,94.39
2023-11-23T04:52:19.900Z,94.21
2023-11-23T04:53:22.873Z,93.82
2023-11-23T04:54:26.293Z,94.14
2023-11-23T04:55:30.388Z,94.28
2023-11-23T04:56:33.032Z,93.96
2023-11-23T04:57:36.051Z,93.95
2023-11-23T04:58:38.050Z,94.18
2023-11-23T04:59:40.080Z,93.98
2023-11-23T05:00:43.119Z,94.05
2023-11-23T05:01:45.367Z,94.32
2023-11-23T05:02:48.496Z,94.12
2023-11-23T05:03:50.811Z,93.93
2023-11-23T05:04:53.835Z,93.92
2023-11-23T05:05:55.907Z,94.24
2023-11-23T05:06:59.088Z,93.99
2023-11-23T05:08:01.189Z,94.04
2023-11-23T05:09:05.003Z,93.77
2023-11-23T05:10:09.819Z,93.92
2023-11-23T05:11:13.149Z,94.02
2023-11-23T05:12:15.265Z,93.97
2023-11-23T05:13:18.697Z,93.96
2023-11-23T05:14:20.833Z,94.04
2023-11-23T05:15:23.896Z,93.99
2023-11-23T05:16:25.949Z,93.83
2023-11-23T05:17:29.431Z,93.66
2023-11-23T05:18:31.814Z,93.90
2023-11-23T05:19:41.980Z,93.74
2023-11-23T05:20:45.505Z,93.87
2023-11-23T05:21:48.669Z,93.78
2023-11-23T05:22:50.731Z,93.70
2023-11-23T05:23:54.218Z,93.90
2023-11-23T05:24:57.278Z,93.77
2023-11-23T05:26:01.663Z,93.59
2023-11-23T05:27:04.200Z,93.77
2023-11-23T05:28:07.363Z,93.64
2023-11-23T05:29:09.465Z,93.62
2023-11-23T05:30:13.935Z,93.84
2023-11-23T05:31:16.243Z,94.02
2023-11-23T05:32:19.550Z,93.88
2023-11-23T05:33:25.529Z,93.47
2023-11-23T05:34:29.006Z,93.52
2023-11-23T05:35:32.026Z,93.44
2023-11-23T05:36:35.066Z,93.83
2023-11-23T05:37:37.052Z,93.66
2023-11-23T05:38:41.663Z,93.58
2023-11-23T05:39:44.622Z,93.56
2023-11-23T05:40:48.179Z,93.37
2023-11-23T05:41:51.663Z,93.32
2023-11-23T05:43:02.918Z,93.30
2023-11-23T05:44:07.885Z,93.38
2023-11-23T05:45:11.726Z,93.01
2023-11-23T05:46:14.987Z,93.45
2023-11-23T05:47:18.152Z,93.23
2023-11-23T05:48:20.290Z,93.20
2023-11-23T05:49:22.881Z,93.36
2023-11-23T05:50:25.917Z,93.12
2023-11-23T05:51:29.187Z,92.79
2023-11-23T05:52:32.484Z,92.60
2023-11-23T05:53:34.501Z,92.97
2023-11-23T05:54:38.599Z,92.88
2023-11-23T05:55:40.579Z,92.77
2023-11-23T05:56:45.006Z,93.06
2023-11-23T05:57:48.430Z,92.70
2023-11-23T05:58:52.178Z,92.71
2023-11-23T05:59:54.188Z,92.87
2023-11-23T06:01:07.016Z,93.03
2023-11-23T06:02:12.005Z,92.57
2023-11-23T06:03:15.124Z,92.79
2023-11-23T06:04:17.350Z,92.54
2023-11-23T06:05:20.657Z,92.68
2023-11-23T06:06:24.539Z,92.63
2023-11-23T06:07:27.573Z,92.73
2023-11-23T06:08:29.636Z,92.89
2023-11-23T06:09:32.837Z,92.81
2023-11-23T06:10:34.865Z,92.57
2023-11-23T06:11:37.902Z,92.40
2023-11-23T06:12:39.883Z,92.17
2023-11-23T06:13:46.034Z,92.50
2023-11-23T06:14:48.258Z,92.36
2023-11-23T06:15:52.180Z,92.24
2023-11-23T06:16:54.182Z,92.30
2023-11-23T06:18:07.427Z,92.50
2023-11-23T06:19:17.098Z,92.31
2023-11-23T06:20:19.704Z,92.19
2023-11-23T06:21:22.929Z,92.31
2023-11-23T06:22:25.009Z,92.38
2023-11-23T06:23:28.030Z,92.07
2023-11-23T06:24:30.055Z,92.24
2023-11-23T06:25:33.413Z,91.78
2023-11-23T06:26:35.430Z,92.33
2023-11-23T06:27:37.411Z,92.00
2023-11-23T06:28:40.357Z,91.91
2023-11-23T06:29:43.670Z,91.87
2023-11-23T06:30:46.990Z,91.74
2023-11-23T06:31:51.365Z,91.51
2023-11-23T06:32:54.894Z,91.89
2023-11-23T06:33:57.017Z,91.61
2023-11-23T06:35:00.027Z,91.88
2023-11-23T06:36:02.041Z,91.35
2023-11-23T06:37:05.353Z,91.57
2023-11-23T06:38:07.491Z,91.27
2023-11-23T06:39:10.930Z,91.41
2023-11-23T06:40:13.256Z,91.22
2023-11-23T06:41:20.734Z,91.25
2023-11-23T06:42:22.780Z,91.34
2023-11-23T06:43:25.875Z,91.33
2023-11-23T06:44:27.927Z,91.51
2023-11-23T06:45:32.431Z,91.10
2023-11-23T06:46:34.485Z,91.25
2023-11-23T06:47:37.647Z,90.76
2023-11-23T06:48:39.748Z,90.89
2023-11-23T06:49:42.975Z,91.26
2023-11-23T06:50:45.604Z,91.08
2023-11-23T06:51:48.655Z,90.87
2023-11-23T06:52:50.693Z,90.64
2023-11-23T06:53:52.729Z,91.25
2023-11-23T06:54:55.705Z,90.97
2023-11-23T06:56:03.561Z,91.11
2023-11-23T06:57:06.532Z,90.79
2023-11-23T06:58:10.215Z,90.91
2023-11-23T06:59:13.538Z,91.00
2023-11-23T07:00:23.481Z,90.84
2023-11-23T07:01:27.184Z,90.51
2023-11-23T07:02:30.429Z,90.34
2023-11-23T07:03:32.644Z,90.67
2023-11-23T07:04:35.733Z,91.13
2023-11-23T07:05:37.765Z,90.83
2023-11-23T07:06:40.749Z,90.42
2023-11-23T07:07:44.798Z,90.41
2023-11-23T07:08:48.295Z,90.26
2023-11-23T07:09:50.268Z,90.78
2023-11-23T07:10:53.759Z,90.83
2023-11-23T07:11:55.972Z,90.71
2023-11-23T07:12:58.930Z,90.81
2023-11-23T07:14:01.818Z,90.52
2023-11-23T07:15:05.562Z,90.72
2023-11-23T07:16:10.225Z,90.74
2023-11-23T07:17:14.625Z,90.79
2023-11-23T07:18:19.012Z,90.74
2023-11-23T07:19:22.234Z,90.43
2023-11-23T07:20:24.283Z,90.29
2023-11-23T07:21:27.515Z,90.32
2023-11-23T07:22:29.502Z,90.46
2023-11-23T07:23:33.007Z,90.28
2023-11-23T07:24:35.489Z,90.38
2023-11-23T07:25:43.340Z,89.94
2023-11-23T07:26:45.934Z,90.15
2023-11-23T07:27:48.955Z,89.95
2023-11-23T07:28:50.977Z,89.95
2023-11-23T07:29:54.883Z,90.32
2023-11-23T07:30:57.727Z,90.06
2023-11-23T07:32:00.845Z,90.14
2023-11-23T07:33:04.316Z,90.44
2023-11-23T07:34:07.402Z,89.88
2023-11-23T07:35:09.631Z,90.04
2023-11-23T07:36:13.864Z,90.07
2023-11-23T07:37:15.992Z,90.10
2023-11-23T07:38:19.888Z,90.09
2023-11-23T07:39:23.607Z,89.68
2023-11-23T07:40:26.699Z,89.66
2023-11-23T07:41:28.664Z,89.70
2023-11-23T07:42:31.674Z,89.96
2023-11-23T07:43:33.710Z,89.79
2023-11-23T07:44:36.682Z,89.16
2023-11-23T07:45:38.846Z,89.25
2023-11-23T07:46:42.270Z,89.78
2023-11-23T07:47:45.075Z,89.86
2023-11-23T07:48:53.749Z,89.92
2023-11-23T07:49:56.707Z,89.63
2023-11-23T07:50:59.774Z,89.73
2023-11-23T07:52:01.785Z,89.47
2023-11-23T07:53:04.948Z,89.67
2023-11-23T07:54:07.077Z,89.72
2023-11-23T07:55:12.047Z,90.19
2023-11-23T07:56:16.170Z,90.07
2023-11-23T07:57:20.212Z,89.52
2023-11-23T07:58:22.310Z,89.69
2023-11-23T07:59:25.353Z,89.92
2023-11-23T08:00:27.663Z,89.37
2023-11-23T08:01:30.746Z,89.52
2023-11-23T08:02:32.757Z,89.33
2023-11-23T08:03:35.893Z,89.31
2023-11-23T08:04:39.428Z,89.35
2023-11-23T08:05:43.356Z,89.15
2023-11-23T08:06:45.343Z,89.15
2023-11-23T08:07:47.985Z,88.98
2023-11-23T08:08:51.121Z,88.93
2023-11-23T08:09:53.114Z,88.93
2023-11-23T08:10:55.226Z,88.91
2023-11-23T08:11:58.590Z,89.35
2023-11-23T08:13:00.732Z,89.55
2023-11-23T08:14:03.988Z,88.97
2023-11-23T08:15:08.334Z,88.60
2023-11-23T08:16:10.318Z,88.77
2023-11-23T08:17:14.255Z,89.20
2023-11-23T08:18:16.398Z,89.46
2023-11-23T08:19:19.726Z,89.28
2023-11-23T08:20:25.138Z,89.41
2023-11-23T08:21:28.200Z,89.55
2023-11-23T08:22:30.218Z,89.52
2023-11-23T08:23:33.216Z,89.27
2023-11-23T08:24:35.355Z,89.76
2023-11-23T08:25:38.865Z,89.10
2023-11-23T08:26:40.904Z,89.00
2023-11-23T08:27:43.932Z,89.18
2023-11-23T08:28:45.935Z,88.97
2023-11-23T08:29:48.884Z,88.86
2023-11-23T08:30:50.927Z,88.80
2023-11-23T08:31:53.899Z,89.27
2023-11-23T08:32:57.145Z,88.58
2023-11-23T08:34:00.388Z,88.92
2023-11-23T08:35:04.143Z,89.24
2023-11-23T08:36:09.329Z,89.08
2023-11-23T08:37:11.425Z,89.04
2023-11-23T08:38:14.697Z,88.92
2023-11-23T08:39:16.684Z,89.29
2023-11-23T08:40:27.058Z,88.79
2023-11-23T08:41:34.738Z,88.27
2023-11-23T08:42:40.526Z,88.71
2023-11-23T08:43:42.584Z,89.21
2023-11-23T08:44:49.537Z,88.28
2023-11-23T08:45:55.897Z,88.91
2023-11-23T08:47:03.022Z,89.55
2023-11-23T08:48:07.738Z,88.86
2023-11-23T08:49:12.082Z,88.59
2023-11-23T08:50:15.615Z,89.16
2023-11-23T08:51:22.311Z,89.53
2023-11-23T08:52:42.038Z,88.69
2023-11-23T08:53:45.047Z,88.71
2023-11-23T08:54:47.078Z,88.50
2023-11-23T08:55:51.327Z,88.49
2023-11-23T08:56:54.437Z,88.95
2023-11-23T08:57:57.529Z,88.49
2023-11-23T08:58:59.661Z,88.07
2023-11-23T09:00:04.252Z,88.44
2023-11-23T09:01:11.756Z,88.80
2023-11-23T09:02:20.975Z,88.89
2023-11-23T09:03:27.928Z,89.26
2023-11-23T09:04:43.147Z,89.00
2023-11-23T09:05:47.959Z,88.48
2023-11-23T09:06:52.404Z,88.82
2023-11-23T09:07:54.840Z,88.11
2023-11-23T09:09:01.430Z,88.08
2023-11-23T09:10:03.939Z,88.21
2023-11-23T09:11:07.442Z,88.26
2023-11-23T09:12:09.804Z,88.15
2023-11-23T09:13:13.080Z,88.43
2023-11-23T09:14:15.404Z,88.13
2023-11-23T09:15:24.393Z,87.75
2023-11-23T09:16:27.448Z,87.44
2023-11-23T09:17:36.691Z,87.72
2023-11-23T09:18:44.668Z,87.87
2023-11-23T09:19:51.095Z,88.29
2023-11-23T09:20:53.174Z,88.46
2023-11-23T09:21:59.450Z,87.92
2023-11-23T09:23:09.327Z,87.75
2023-11-23T09:24:16.506Z,87.37
2023-11-23T09:25:21.726Z,87.02
2023-11-23T09:26:24.823Z,86.42
2023-11-23T09:27:26.864Z,86.54
2023-11-23T09:28:30.745Z,87.11
2023-11-23T09:29:32.886Z,87.07
2023-11-23T09:30:35.987Z,87.54
2023-11-23T09:31:38.516Z,87.18
2023-11-23T09:32:41.846Z,87.03
2023-11-23T09:33:43.895Z,86.43
2023-11-23T09:34:46.902Z,87.03
2023-11-23T09:35:49.048Z,87.08
2023-11-23T09:36:52.036Z,86.68
2023-11-23T09:37:55.469Z,86.96
2023-11-23T09:39:01.530Z,86.50
2023-11-23T09:40:06.289Z,86.00
2023-11-23T09:41:12.346Z,86.03
2023-11-23T09:42:17.688Z,85.60
2023-11-23T09:43:21.718Z,85.72
2023-11-23T09:44:24.698Z,85.21
2023-11-23T09:45:27.895Z,85.40
2023-11-23T09:46:30.561Z,85.36
2023-11-23T09:47:33.104Z,86.06
2023-11-23T09:48:39.386Z,86.63
2023-11-23T09:49:42.288Z,85.72
2023-11-23T09:50:45.344Z,85.96
2023-11-23T09:51:49.063Z,86.68
2023-11-23T09:52:53.513Z,86.71
2023-11-23T09:54:00.136Z,85.95
2023-11-23T09:55:08.425Z,85.88
2023-11-23T09:56:10.706Z,85.63
2023-11-23T09:57:13.950Z,85.98
2023-11-23T09:58:15.956Z,85.48
2023-11-23T09:59:18.993Z,85.24
2023-11-23T10:00:22.467Z,85.33
2023-11-23T10:01:27.918Z,85.58
2023-11-23T10:02:33.763Z,85.68
2023-11-23T10:03:37.654Z,85.76
2023-11-23T10:04:39.758Z,86.02
2023-11-23T10:05:44.695Z,85.61
2023-11-23T10:06:46.632Z,85.47
2023-11-23T10:07:50.982Z,85.27
2023-11-23T10:08:52.930Z,85.66
2023-11-23T10:09:57.330Z,85.48
2023-11-23T10:10:59.916Z,85.14
2023-11-23T10:12:03.696Z,85.61
2023-11-23T10:13:06.996Z,85.44
2023-11-23T10:14:10.069Z,85.29
2023-11-23T10:15:12.862Z,84.94
2023-11-23T10:16:16.098Z,84.75
2023-11-23T10:17:18.613Z,84.70
2023-11-23T10:18:21.758Z,84.54
2023-11-23T10:19:24.178Z,85.19
2023-11-23T10:20:27.724Z,85.01
2023-11-23T10:21:29.817Z,84.60
2023-11-23T10:22:32.976Z,85.16
2023-11-23T10:23:34.953Z,84.70
2023-11-23T10:24:50.575Z,83.99
2023-11-23T10:25:56.796Z,84.52
2023-11-23T10:27:00.797Z,84.10
2023-11-23T10:28:04.943Z,84.42
2023-11-23T10:29:10.831Z,84.26
2023-11-23T10:30:14.219Z,84.97
2023-11-23T10:31:26.355Z,84.36
2023-11-23T10:32:32.100Z,85.11
2023-11-23T10:33:36.564Z,84.38
2023-11-23T10:34:41.387Z,84.77
2023-11-23T10:35:51.211Z,84.57
2023-11-23T10:36:53.679Z,84.80
2023-11-23T10:37:56.818Z,84.95
2023-11-23T10:39:01.025Z,85.13
2023-11-23T10:40:05.742Z,84.94
2023-11-23T10:41:21.172Z,84.95
2023-11-23T10:42:24.280Z,84.39
2023-11-23T10:43:27.341Z,84.39
2023-11-23T10:44:31.091Z,84.46
2023-11-23T10:45:35.578Z,84.77
2023-11-23T10:46:40.617Z,84.55
2023-11-23T10:47:43.626Z,84.50
2023-11-23T10:48:47.864Z,84.77
2023-11-23T10:49:50.818Z,84.62
2023-11-23T10:50:57.888Z,84.41
2023-11-23T10:52:01.247Z,84.39
2023-11-23T10:53:05.110Z,84.08
2023-11-23T10:54:07.172Z,84.45
2023-11-23T10:55:11.474Z,84.33
2023-11-23T10:56:18.237Z,84.69
2023-11-23T10:57:22.596Z,84.61
2023-11-23T10:58:25.315Z,84.29
2023-11-23T10:59:29.121Z,84.19
2023-11-23T11:00:31.275Z,84.13
2023-11-23T11:01:34.273Z,84.87
2023-11-23T11:02:37.426Z,84.55
2023-11-23T11:03:40.363Z,84.40
2023-11-23T11:04:43.482Z,84.29
2023-11-23T11:05:49.752Z,84.16
2023-11-23T11:06:55.374Z,84.38
2023-11-23T11:08:01.733Z,84.31
2023-11-23T11:09:14.940Z,84.55
2023-11-23T11:10:16.940Z,84.15
2023-11-23T11:11:22.969Z,83.77
2023-11-23T11:12:25.052Z,83.91
2023-11-23T11:13:28.609Z,84.21
2023-11-23T11:14:34.716Z,84.28
2023-11-23T11:15:39.228Z,84.60
2023-11-23T11:16:41.709Z,84.44
2023-11-23T11:17:47.125Z,83.62
2023-11-23T11:18:53.589Z,83.69
2023-11-23T11:19:56.466Z,84.07
2023-11-23T11:21:09.282Z,83.33
2023-11-23T11:22:13.388Z,83.57
2023-11-23T11:23:16.367Z,84.01
2023-11-23T11:24:19.926Z,83.90
2023-11-23T11:25:23.788Z,83.63
2023-11-23T11:26:28.885Z,83.85
2023-11-23T11:27:32.127Z,83.83
2023-11-23T11:28:34.556Z,83.78
2023-11-23T11:29:37.609Z,84.12
2023-11-23T11:30:39.816Z,83.74
2023-11-23T11:31:43.927Z,83.73
2023-11-23T11:32:47.073Z,83.57
2023-11-23T11:33:53.920Z,83.41
2023-11-23T11:35:00.713Z,83.70
2023-11-23T11:36:03.815Z,83.25
2023-11-23T11:37:08.104Z,83.64
2023-11-23T11:38:15.062Z,83.12
2023-11-23T11:39:17.375Z,83.36
2023-11-23T11:40:21.037Z,83.09
2023-11-23T11:41:23.842Z,82.68
2023-11-23T11:42:30.890Z,82.44
2023-11-23T11:43:34.094Z,82.01
2023-11-23T11:44:37.419Z,82.20
2023-11-23T11:45:39.467Z,82.42
2023-11-23T11:46:42.671Z,82.27
2023-11-23T11:47:44.764Z,82.10
2023-11-23T11:48:47.258Z,81.98
2023-11-23T11:49:51.021Z,81.95
2023-11-23T11:50:57.048Z,81.29
2023-11-23T11:52:01.124Z,82.28
2023-11-23T11:53:03.720Z,82.61
2023-11-23T11:54:08.162Z,82.15
2023-11-23T11:55:10.285Z,81.82
2023-11-23T11:56:14.227Z,81.78
2023-11-23T11:57:19.335Z,81.60
2023-11-23T11:58:22.806Z,81.50
2023-11-23T11:59:29.571Z,81.22
2023-11-23T12:00:35.791Z,81.43
2023-11-23T12:01:38.896Z,81.87
2023-11-23T12:02:41.572Z,80.71
2023-11-23T12:03:45.470Z,81.01
2023-11-23T12:04:57.881Z,81.00
2023-11-23T12:06:00.870Z,81.69
2023-11-23T12:07:15.551Z,81.97
2023-11-23T12:08:18.540Z,81.80
2023-11-23T12:09:31.120Z,81.58
2023-11-23T12:10:42.255Z,81.42
2023-11-23T12:11:44.973Z,81.22
2023-11-23T12:12:48.763Z,81.21
2023-11-23T12:13:54.769Z,81.29
2023-11-23T12:14:58.319Z,81.03
2023-11-23T12:16:00.446Z,81.39
2023-11-23T12:17:09.467Z,80.49
2023-11-23T12:18:14.381Z,80.35
2023-11-23T12:19:18.718Z,81.08
2023-11-23T12:20:21.217Z,80.91
2023-11-23T12:21:24.281Z,80.57
2023-11-23T12:22:27.189Z,80.85
2023-11-23T12:23:30.822Z,80.79
2023-11-23T12:24:33.309Z,80.31
2023-11-23T12:25:36.982Z,79.90
2023-11-23T12:26:39.856Z,79.97
2023-11-23T12:27:43.552Z,80.06
2023-11-23T12:28:47.729Z,80.27
2023-11-23T12:29:53.278Z,80.72
2023-11-23T12:30:55.632Z,80.47
2023-11-23T12:32:00.442Z,81.17
2023-11-23T12:33:03.521Z,80.75
2023-11-23T12:34:05.605Z,80.40
2023-11-23T12:35:10.274Z,81.13
2023-11-23T12:36:13.610Z,80.85
2023-11-23T12:37:16.802Z,80.86
2023-11-23T12:38:18.748Z,80.67
2023-11-23T12:39:21.153Z,80.92
2023-11-23T12:40:26.901Z,80.94
2023-11-23T12:41:31.152Z,81.22
2023-11-23T12:42:37.845Z,80.58
2023-11-23T12:43:39.822Z,80.35
2023-11-23T12:44:42.794Z,80.33
2023-11-23T12:45:46.341Z,80.93
2023-11-23T12:46:50.144Z,80.64
2023-11-23T12:47:52.904Z,80.52
2023-11-23T12:48:55.979Z,80.28
2023-11-23T12:49:58.052Z,79.73
2023-11-23T12:51:01.677Z,80.00
2023-11-23T12:52:04.165Z,80.44
2023-11-23T12:53:07.488Z,80.32
2023-11-23T12:54:09.492Z,80.47
2023-11-23T12:55:11.626Z,80.32
2023-11-23T12:56:15.652Z,80.68
2023-11-23T12:57:17.948Z,81.14
2023-11-23T12:58:23.375Z,81.33
2023-11-23T12:59:26.398Z,81.08
2023-11-23T13:02:09.643Z,81.12
2023-11-23T13:03:12.215Z,80.97
2023-11-23T13:04:20.284Z,81.12
2023-11-23T13:05:23.281Z,80.90
2023-11-23T13:06:28.948Z,80.94
2023-11-23T13:07:31.076Z,80.83
2023-11-23T13:08:35.558Z,80.99
2023-11-23T13:09:37.690Z,80.89
2023-11-23T13:10:41.998Z,80.84
2023-11-23T13:11:43.934Z,80.61
2023-11-23T13:12:47.277Z,80.72
2023-11-23T13:13:49.650Z,80.58
2023-11-23T13:14:52.626Z,81.18
2023-11-23T13:15:54.753Z,81.08
2023-11-23T13:16:57.947Z,80.46
2023-11-23T13:18:01.503Z,80.90
2023-11-23T13:19:16.949Z,80.82
2023-11-23T13:20:28.743Z,81.32
2023-11-23T13:21:31.805Z,81.13
2023-11-23T13:22:33.832Z,80.74
2023-11-23T13:23:38.579Z,80.96
2023-11-23T13:24:40.713Z,80.69
2023-11-23T13:25:46.026Z,81.05
2023-11-23T13:26:49.443Z,80.96
2023-11-23T13:27:57.172Z,80.89
2023-11-23T13:28:59.311Z,80.91
2023-11-23T13:30:02.689Z,80.83
2023-11-23T13:31:05.901Z,80.72
2023-11-23T13:32:11.582Z,81.25
2023-11-23T13:33:21.596Z,80.75
2023-11-23T13:34:24.727Z,80.77
2023-11-23T13:35:28.220Z,80.74
2023-11-23T13:36:35.630Z,81.16
2023-11-23T13:37:37.944Z,80.86
2023-11-23T13:38:41.195Z,81.18
2023-11-23T13:39:43.315Z,81.03
2023-11-23T13:40:48.992Z,80.99
2023-11-23T13:41:52.129Z,81.14
2023-11-23T13:42:54.658Z,80.99
2023-11-23T13:43:57.630Z,80.83